sensor_id;sensor_type;location;lat;lon;timestamp;temperature;humidity
36548;DHT22;22551;52.206;4.856;2022-11-23T00:04:56;7.50;99.90
36548;DHT22;22551;52.206;4.856;2022-11-23T00:09:58;7.50;99.90
36548;DHT22;22551;52.206;4.856;2022-11-23T00:15:02;7.40;99.90
36548;DHT22;22551;52.206;4.856;2022-11-23T00:20:06;7.40;99.90
36548;DHT22;22551;52.206;4.856;2022-11-23T00:25:09;7.40;99.90
36548;DHT22;22551;52.206;4.856;2022-11-23T00:30:13;7.50;99.90
36548;DHT22;22551;52.206;4.856;2022-11-23T00:35:16;7.50;99.90
36548;DHT22;22551;52.206;4.856;2022-11-23T00:40:20;7.60;99.90
36548;DHT22;22551;52.206;4.856;2022-11-23T00:45:23;7.60;99.90
36548;DHT22;22551;52.206;4.856;2022-11-23T00:50:26;7.70;99.90
36548;DHT22;22551;52.206;4.856;2022-11-23T00:55:28;7.80;99.90
36548;DHT22;22551;52.206;4.856;2022-11-23T01:00:32;7.80;99.90
36548;DHT22;22551;52.206;4.856;2022-11-23T01:05:35;7.70;99.90
36548;DHT22;22551;52.206;4.856;2022-11-23T01:10:37;7.80;99.90
36548;DHT22;22551;52.206;4.856;2022-11-23T01:15:48;7.80;99.90
36548;DHT22;22551;52.206;4.856;2022-11-23T01:20:50;7.80;99.90
36548;DHT22;22551;52.206;4.856;2022-11-23T01:25:52;7.70;99.90
36548;DHT22;22551;52.206;4.856;2022-11-23T01:31:02;7.70;99.90
36548;DHT22;22551;52.206;4.856;2022-11-23T01:36:09;7.80;99.90
36548;DHT22;22551;52.206;4.856;2022-11-23T01:41:14;7.80;99.90
36548;DHT22;22551;52.206;4.856;2022-11-23T01:46:19;7.80;99.90
36548;DHT22;22551;52.206;4.856;2022-11-23T01:51:25;7.80;99.90
36548;DHT22;22551;52.206;4.856;2022-11-23T01:56:32;7.80;99.90
36548;DHT22;22551;52.206;4.856;2022-11-23T02:01:37;7.80;99.90
36548;DHT22;22551;52.206;4.856;2022-11-23T02:06:39;7.80;99.90
36548;DHT22;22551;52.206;4.856;2022-11-23T02:11:42;7.80;99.90
36548;DHT22;22551;52.206;4.856;2022-11-23T02:16:45;7.80;99.90
36548;DHT22;22551;52.206;4.856;2022-11-23T02:21:49;7.90;99.90
36548;DHT22;22551;52.206;4.856;2022-11-23T02:26:57;7.80;99.90
36548;DHT22;22551;52.206;4.856;2022-11-23T02:32:09;7.90;99.90
36548;DHT22;22551;52.206;4.856;2022-11-23T02:37:11;7.90;99.90
36548;DHT22;22551;52.206;4.856;2022-11-23T02:42:15;7.90;99.90
36548;DHT22;22551;52.206;4.856;2022-11-23T02:47:21;7.80;99.90
36548;DHT22;22551;52.206;4.856;2022-11-23T02:52:24;7.90;99.90
36548;DHT22;22551;52.206;4.856;2022-11-23T02:57:27;7.80;99.90
36548;DHT22;22551;52.206;4.856;2022-11-23T03:02:29;7.70;99.90
36548;DHT22;22551;52.206;4.856;2022-11-23T03:07:32;7.80;99.90
36548;DHT22;22551;52.206;4.856;2022-11-23T03:12:35;7.70;99.90
36548;DHT22;22551;52.206;4.856;2022-11-23T03:17:38;7.70;99.90
36548;DHT22;22551;52.206;4.856;2022-11-23T03:22:40;7.70;99.90
36548;DHT22;22551;52.206;4.856;2022-11-23T03:27:45;7.70;99.90
36548;DHT22;22551;52.206;4.856;2022-11-23T03:32:47;7.60;99.90
36548;DHT22;22551;52.206;4.856;2022-11-23T03:37:49;7.60;99.90
36548;DHT22;22551;52.206;4.856;2022-11-23T03:42:53;7.60;99.90
36548;DHT22;22551;52.206;4.856;2022-11-23T03:47:55;7.70;99.90
36548;DHT22;22551;52.206;4.856;2022-11-23T03:52:57;7.70;99.90
36548;DHT22;22551;52.206;4.856;2022-11-23T03:58:01;7.70;99.90
36548;DHT22;22551;52.206;4.856;2022-11-23T04:03:13;7.80;99.90
36548;DHT22;22551;52.206;4.856;2022-11-23T04:08:15;7.80;99.90
36548;DHT22;22551;52.206;4.856;2022-11-23T04:13:19;7.80;99.90
36548;DHT22;22551;52.206;4.856;2022-11-23T04:18:21;7.80;99.90
36548;DHT22;22551;52.206;4.856;2022-11-23T04:23:23;7.90;99.90
36548;DHT22;22551;52.206;4.856;2022-11-23T04:28:27;7.90;99.90
36548;DHT22;22551;52.206;4.856;2022-11-23T04:33:29;7.90;99.90
36548;DHT22;22551;52.206;4.856;2022-11-23T04:38:32;7.90;99.90
36548;DHT22;22551;52.206;4.856;2022-11-23T04:43:36;7.90;99.90
36548;DHT22;22551;52.206;4.856;2022-11-23T04:48:38;7.90;99.90
36548;DHT22;22551;52.206;4.856;2022-11-23T04:53:40;7.90;99.90
36548;DHT22;22551;52.206;4.856;2022-11-23T04:58:44;7.90;99.90
36548;DHT22;22551;52.206;4.856;2022-11-23T05:03:46;7.90;99.90
36548;DHT22;22551;52.206;4.856;2022-11-23T05:08:49;7.90;99.90
36548;DHT22;22551;52.206;4.856;2022-11-23T05:13:53;7.90;99.90
36548;DHT22;22551;52.206;4.856;2022-11-23T05:18:55;7.90;99.90
36548;DHT22;22551;52.206;4.856;2022-11-23T05:23:57;7.90;99.90
36548;DHT22;22551;52.206;4.856;2022-11-23T05:29:01;7.90;99.90
36548;DHT22;22551;52.206;4.856;2022-11-23T05:34:03;7.90;99.90
36548;DHT22;22551;52.206;4.856;2022-11-23T05:39:05;8.00;99.90
36548;DHT22;22551;52.206;4.856;2022-11-23T05:44:09;7.90;99.90
36548;DHT22;22551;52.206;4.856;2022-11-23T05:49:11;8.00;99.90
36548;DHT22;22551;52.206;4.856;2022-11-23T05:54:13;7.90;99.90
36548;DHT22;22551;52.206;4.856;2022-11-23T05:59:17;7.90;99.90
36548;DHT22;22551;52.206;4.856;2022-11-23T06:04:28;7.90;99.90
36548;DHT22;22551;52.206;4.856;2022-11-23T06:09:30;7.90;99.90
36548;DHT22;22551;52.206;4.856;2022-11-23T06:14:34;7.80;99.90
36548;DHT22;22551;52.206;4.856;2022-11-23T06:19:36;7.80;99.90
36548;DHT22;22551;52.206;4.856;2022-11-23T06:24:44;7.80;99.90
36548;DHT22;22551;52.206;4.856;2022-11-23T06:29:48;7.80;99.90
36548;DHT22;22551;52.206;4.856;2022-11-23T06:34:50;7.80;99.90
36548;DHT22;22551;52.206;4.856;2022-11-23T06:39:53;7.70;99.90
36548;DHT22;22551;52.206;4.856;2022-11-23T06:44:59;7.70;99.90
36548;DHT22;22551;52.206;4.856;2022-11-23T06:50:01;7.60;99.90
36548;DHT22;22551;52.206;4.856;2022-11-23T06:55:04;7.50;99.90
36548;DHT22;22551;52.206;4.856;2022-11-23T07:00:10;7.40;99.90
36548;DHT22;22551;52.206;4.856;2022-11-23T07:05:16;7.30;99.90
36548;DHT22;22551;52.206;4.856;2022-11-23T07:10:19;7.20;99.90
36548;DHT22;22551;52.206;4.856;2022-11-23T07:15:22;7.20;99.90
36548;DHT22;22551;52.206;4.856;2022-11-23T07:20:25;7.10;99.90
36548;DHT22;22551;52.206;4.856;2022-11-23T07:25:27;7.00;99.90
36548;DHT22;22551;52.206;4.856;2022-11-23T07:30:32;6.90;99.90
36548;DHT22;22551;52.206;4.856;2022-11-23T07:35:40;7.00;99.90
36548;DHT22;22551;52.206;4.856;2022-11-23T07:40:42;7.00;99.90
36548;DHT22;22551;52.206;4.856;2022-11-23T07:45:46;7.00;99.90
36548;DHT22;22551;52.206;4.856;2022-11-23T07:50:51;7.00;99.90
36548;DHT22;22551;52.206;4.856;2022-11-23T07:55:55;7.00;99.90
36548;DHT22;22551;52.206;4.856;2022-11-23T08:00:59;7.10;99.90
36548;DHT22;22551;52.206;4.856;2022-11-23T08:06:01;7.10;99.90
36548;DHT22;22551;52.206;4.856;2022-11-23T08:11:04;7.20;99.90
36548;DHT22;22551;52.206;4.856;2022-11-23T08:16:08;7.20;99.90
36548;DHT22;22551;52.206;4.856;2022-11-23T08:21:10;7.30;99.90
36548;DHT22;22551;52.206;4.856;2022-11-23T08:26:12;7.30;99.90
36548;DHT22;22551;52.206;4.856;2022-11-23T08:31:16;7.40;99.90
36548;DHT22;22551;52.206;4.856;2022-11-23T08:36:18;7.40;99.90
36548;DHT22;22551;52.206;4.856;2022-11-23T08:41:20;7.50;99.90
36548;DHT22;22551;52.206;4.856;2022-11-23T08:46:24;7.60;99.90
36548;DHT22;22551;52.206;4.856;2022-11-23T08:51:26;7.70;99.90
36548;DHT22;22551;52.206;4.856;2022-11-23T08:56:28;7.70;99.90
36548;DHT22;22551;52.206;4.856;2022-11-23T09:01:32;7.70;99.90
36548;DHT22;22551;52.206;4.856;2022-11-23T09:06:34;7.80;99.90
36548;DHT22;22551;52.206;4.856;2022-11-23T09:11:36;7.90;99.90
36548;DHT22;22551;52.206;4.856;2022-11-23T09:16:39;7.90;99.90
36548;DHT22;22551;52.206;4.856;2022-11-23T09:21:42;8.00;99.90
36548;DHT22;22551;52.206;4.856;2022-11-23T09:26:44;8.20;99.90
36548;DHT22;22551;52.206;4.856;2022-11-23T09:31:47;8.20;99.90
36548;DHT22;22551;52.206;4.856;2022-11-23T09:36:49;8.20;99.90
36548;DHT22;22551;52.206;4.856;2022-11-23T09:42:16;8.20;99.90
36548;DHT22;22551;52.206;4.856;2022-11-23T09:48:03;8.20;99.90
36548;DHT22;22551;52.206;4.856;2022-11-23T09:53:26;8.10;99.90
36548;DHT22;22551;52.206;4.856;2022-11-23T09:58:35;8.10;99.90
36548;DHT22;22551;52.206;4.856;2022-11-23T10:03:43;8.10;99.90
36548;DHT22;22551;52.206;4.856;2022-11-23T10:09:06;8.10;99.90
36548;DHT22;22551;52.206;4.856;2022-11-23T10:14:36;8.10;99.90
36548;DHT22;22551;52.206;4.856;2022-11-23T10:19:58;8.20;99.90
36548;DHT22;22551;52.206;4.856;2022-11-23T10:25:19;8.20;99.90
36548;DHT22;22551;52.206;4.856;2022-11-23T10:30:32;8.20;99.90
36548;DHT22;22551;52.206;4.856;2022-11-23T10:35:41;8.20;99.90
36548;DHT22;22551;52.206;4.856;2022-11-23T10:40:52;8.30;99.90
36548;DHT22;22551;52.206;4.856;2022-11-23T10:46:28;8.30;99.90
36548;DHT22;22551;52.206;4.856;2022-11-23T10:51:34;8.30;99.90
36548;DHT22;22551;52.206;4.856;2022-11-23T10:56:45;8.40;99.90
36548;DHT22;22551;52.206;4.856;2022-11-23T11:01:59;8.50;99.90
36548;DHT22;22551;52.206;4.856;2022-11-23T11:07:25;8.50;99.90
36548;DHT22;22551;52.206;4.856;2022-11-23T11:12:32;8.40;99.90
36548;DHT22;22551;52.206;4.856;2022-11-23T11:17:38;8.30;99.90
36548;DHT22;22551;52.206;4.856;2022-11-23T11:22:42;8.30;99.90
36548;DHT22;22551;52.206;4.856;2022-11-23T11:27:50;8.30;99.90
36548;DHT22;22551;52.206;4.856;2022-11-23T11:32:59;8.30;99.90
36548;DHT22;22551;52.206;4.856;2022-11-23T11:38:12;8.30;99.90
36548;DHT22;22551;52.206;4.856;2022-11-23T11:43:20;8.40;99.90
36548;DHT22;22551;52.206;4.856;2022-11-23T11:48:29;8.40;99.90
36548;DHT22;22551;52.206;4.856;2022-11-23T11:53:40;8.40;99.90
36548;DHT22;22551;52.206;4.856;2022-11-23T11:58:53;8.50;99.90
36548;DHT22;22551;52.206;4.856;2022-11-23T12:03:59;8.60;99.90
36548;DHT22;22551;52.206;4.856;2022-11-23T12:09:10;8.70;99.90
36548;DHT22;22551;52.206;4.856;2022-11-23T12:14:15;8.80;99.90
36548;DHT22;22551;52.206;4.856;2022-11-23T12:19:20;8.80;99.90
36548;DHT22;22551;52.206;4.856;2022-11-23T12:24:42;8.80;99.90
36548;DHT22;22551;52.206;4.856;2022-11-23T12:30:12;8.80;99.90
36548;DHT22;22551;52.206;4.856;2022-11-23T12:35:33;8.80;99.90
36548;DHT22;22551;52.206;4.856;2022-11-23T12:40:58;9.00;99.90
36548;DHT22;22551;52.206;4.856;2022-11-23T12:46:13;9.00;99.90
36548;DHT22;22551;52.206;4.856;2022-11-23T12:51:25;9.00;99.90
36548;DHT22;22551;52.206;4.856;2022-11-23T12:56:52;9.00;99.90
36548;DHT22;22551;52.206;4.856;2022-11-23T13:02:01;9.10;99.90
36548;DHT22;22551;52.206;4.856;2022-11-23T13:07:35;9.10;99.90
36548;DHT22;22551;52.206;4.856;2022-11-23T13:13:20;9.20;99.90
36548;DHT22;22551;52.206;4.856;2022-11-23T13:18:43;9.10;99.90
36548;DHT22;22551;52.206;4.856;2022-11-23T13:23:53;9.10;99.90
36548;DHT22;22551;52.206;4.856;2022-11-23T13:28:59;9.00;99.90
36548;DHT22;22551;52.206;4.856;2022-11-23T13:34:44;8.90;99.90
36548;DHT22;22551;52.206;4.856;2022-11-23T13:40:02;8.80;99.90
36548;DHT22;22551;52.206;4.856;2022-11-23T13:45:28;8.70;99.90
36548;DHT22;22551;52.206;4.856;2022-11-23T13:50:33;8.60;99.90
36548;DHT22;22551;52.206;4.856;2022-11-23T13:55:37;8.50;99.90
36548;DHT22;22551;52.206;4.856;2022-11-23T14:00:48;8.50;99.90
36548;DHT22;22551;52.206;4.856;2022-11-23T14:05:57;8.50;99.90
36548;DHT22;22551;52.206;4.856;2022-11-23T14:11:09;8.40;99.90
36548;DHT22;22551;52.206;4.856;2022-11-23T14:16:20;8.40;99.90
36548;DHT22;22551;52.206;4.856;2022-11-23T14:21:39;8.40;99.90
36548;DHT22;22551;52.206;4.856;2022-11-23T14:26:56;8.30;99.90
36548;DHT22;22551;52.206;4.856;2022-11-23T14:32:19;8.30;99.90
36548;DHT22;22551;52.206;4.856;2022-11-23T14:37:35;8.20;99.90
36548;DHT22;22551;52.206;4.856;2022-11-23T14:42:45;8.20;99.90
36548;DHT22;22551;52.206;4.856;2022-11-23T14:47:53;8.20;99.90
36548;DHT22;22551;52.206;4.856;2022-11-23T14:52:57;8.20;99.90
36548;DHT22;22551;52.206;4.856;2022-11-23T14:58:02;8.20;99.90
36548;DHT22;22551;52.206;4.856;2022-11-23T15:03:11;8.20;99.90
36548;DHT22;22551;52.206;4.856;2022-11-23T15:08:18;8.20;99.90
36548;DHT22;22551;52.206;4.856;2022-11-23T15:13:24;8.20;99.90
36548;DHT22;22551;52.206;4.856;2022-11-23T15:18:31;8.20;99.90
36548;DHT22;22551;52.206;4.856;2022-11-23T15:23:36;8.20;99.90
36548;DHT22;22551;52.206;4.856;2022-11-23T15:28:40;8.20;99.90
36548;DHT22;22551;52.206;4.856;2022-11-23T15:33:46;8.20;99.90
36548;DHT22;22551;52.206;4.856;2022-11-23T15:38:50;8.20;99.90
36548;DHT22;22551;52.206;4.856;2022-11-23T15:43:54;8.20;99.90
36548;DHT22;22551;52.206;4.856;2022-11-23T15:48:58;8.20;99.90
36548;DHT22;22551;52.206;4.856;2022-11-23T15:54:00;8.20;99.90
36548;DHT22;22551;52.206;4.856;2022-11-23T15:59:04;8.20;99.90
36548;DHT22;22551;52.206;4.856;2022-11-23T16:04:29;8.20;99.90
36548;DHT22;22551;52.206;4.856;2022-11-23T16:09:35;8.20;99.90
36548;DHT22;22551;52.206;4.856;2022-11-23T16:14:39;8.20;99.90
36548;DHT22;22551;52.206;4.856;2022-11-23T16:19:46;8.20;99.90
36548;DHT22;22551;52.206;4.856;2022-11-23T16:24:50;8.30;99.90
36548;DHT22;22551;52.206;4.856;2022-11-23T16:29:56;8.30;99.90
36548;DHT22;22551;52.206;4.856;2022-11-23T16:35:14;8.30;99.90
36548;DHT22;22551;52.206;4.856;2022-11-23T16:40:18;8.30;99.90
36548;DHT22;22551;52.206;4.856;2022-11-23T16:45:20;8.40;99.90
36548;DHT22;22551;52.206;4.856;2022-11-23T16:50:25;8.30;99.90
36548;DHT22;22551;52.206;4.856;2022-11-23T16:55:29;8.40;99.90
36548;DHT22;22551;52.206;4.856;2022-11-23T17:00:32;8.40;99.90
36548;DHT22;22551;52.206;4.856;2022-11-23T17:05:37;8.40;99.90
36548;DHT22;22551;52.206;4.856;2022-11-23T17:10:39;8.40;99.90
36548;DHT22;22551;52.206;4.856;2022-11-23T17:15:42;8.40;99.90
36548;DHT22;22551;52.206;4.856;2022-11-23T17:20:45;8.40;99.90
36548;DHT22;22551;52.206;4.856;2022-11-23T17:25:48;8.40;99.90
36548;DHT22;22551;52.206;4.856;2022-11-23T17:37:12;8.30;99.90
36548;DHT22;22551;52.206;4.856;2022-11-23T17:42:17;8.20;99.90
36548;DHT22;22551;52.206;4.856;2022-11-23T17:47:23;8.10;99.90
36548;DHT22;22551;52.206;4.856;2022-11-23T17:52:29;8.00;99.90
36548;DHT22;22551;52.206;4.856;2022-11-23T17:57:31;7.90;99.90
36548;DHT22;22551;52.206;4.856;2022-11-23T18:02:33;7.80;99.90
36548;DHT22;22551;52.206;4.856;2022-11-23T18:07:37;7.80;99.90
36548;DHT22;22551;52.206;4.856;2022-11-23T18:12:40;7.70;99.90
36548;DHT22;22551;52.206;4.856;2022-11-23T18:17:44;7.70;99.90
36548;DHT22;22551;52.206;4.856;2022-11-23T18:22:47;7.70;99.90
36548;DHT22;22551;52.206;4.856;2022-11-23T18:27:49;7.60;99.90
36548;DHT22;22551;52.206;4.856;2022-11-23T18:32:53;7.60;99.90
36548;DHT22;22551;52.206;4.856;2022-11-23T18:37:57;7.50;99.90
36548;DHT22;22551;52.206;4.856;2022-11-23T18:42:59;7.50;99.90
36548;DHT22;22551;52.206;4.856;2022-11-23T18:48:02;7.40;99.90
36548;DHT22;22551;52.206;4.856;2022-11-23T18:53:06;7.40;99.90
36548;DHT22;22551;52.206;4.856;2022-11-23T18:58:08;7.30;99.90
36548;DHT22;22551;52.206;4.856;2022-11-23T19:03:11;7.30;99.90
36548;DHT22;22551;52.206;4.856;2022-11-23T19:08:14;7.20;99.90
36548;DHT22;22551;52.206;4.856;2022-11-23T19:13:16;7.20;99.90
36548;DHT22;22551;52.206;4.856;2022-11-23T19:18:19;7.20;99.90
36548;DHT22;22551;52.206;4.856;2022-11-23T19:23:22;7.20;99.90
36548;DHT22;22551;52.206;4.856;2022-11-23T19:28:24;7.20;99.90
36548;DHT22;22551;52.206;4.856;2022-11-23T19:33:28;7.10;99.90
36548;DHT22;22551;52.206;4.856;2022-11-23T19:38:32;7.10;99.90
36548;DHT22;22551;52.206;4.856;2022-11-23T19:43:35;7.00;99.90
36548;DHT22;22551;52.206;4.856;2022-11-23T19:48:37;7.00;99.90
36548;DHT22;22551;52.206;4.856;2022-11-23T19:53:43;6.90;99.90
36548;DHT22;22551;52.206;4.856;2022-11-23T19:58:49;6.90;99.90
36548;DHT22;22551;52.206;4.856;2022-11-23T20:03:54;6.90;99.90
36548;DHT22;22551;52.206;4.856;2022-11-23T20:09:00;6.90;99.90
36548;DHT22;22551;52.206;4.856;2022-11-23T20:14:03;6.90;99.90
36548;DHT22;22551;52.206;4.856;2022-11-23T20:19:07;6.90;99.90
36548;DHT22;22551;52.206;4.856;2022-11-23T20:24:12;7.00;99.90
36548;DHT22;22551;52.206;4.856;2022-11-23T20:29:16;7.00;99.90
36548;DHT22;22551;52.206;4.856;2022-11-23T20:34:19;7.00;99.90
36548;DHT22;22551;52.206;4.856;2022-11-23T20:39:24;7.00;99.90
36548;DHT22;22551;52.206;4.856;2022-11-23T20:44:27;7.10;99.90
36548;DHT22;22551;52.206;4.856;2022-11-23T20:49:29;7.20;99.90
36548;DHT22;22551;52.206;4.856;2022-11-23T20:54:33;7.10;99.90
36548;DHT22;22551;52.206;4.856;2022-11-23T20:59:36;7.10;99.90
36548;DHT22;22551;52.206;4.856;2022-11-23T21:04:38;7.00;99.90
36548;DHT22;22551;52.206;4.856;2022-11-23T21:09:42;6.90;99.90
36548;DHT22;22551;52.206;4.856;2022-11-23T21:14:45;6.90;99.90
36548;DHT22;22551;52.206;4.856;2022-11-23T21:19:47;6.80;99.90
36548;DHT22;22551;52.206;4.856;2022-11-23T21:24:51;6.90;99.90
36548;DHT22;22551;52.206;4.856;2022-11-23T21:29:54;6.80;99.90
36548;DHT22;22551;52.206;4.856;2022-11-23T21:34:56;6.90;99.90
36548;DHT22;22551;52.206;4.856;2022-11-23T21:39:59;6.80;99.90
36548;DHT22;22551;52.206;4.856;2022-11-23T21:45:02;6.80;99.90
36548;DHT22;22551;52.206;4.856;2022-11-23T21:50:05;6.80;99.90
36548;DHT22;22551;52.206;4.856;2022-11-23T21:55:10;6.80;99.90
36548;DHT22;22551;52.206;4.856;2022-11-23T22:00:15;6.80;99.90
36548;DHT22;22551;52.206;4.856;2022-11-23T22:05:18;6.80;99.90
36548;DHT22;22551;52.206;4.856;2022-11-23T22:10:22;6.90;99.90
36548;DHT22;22551;52.206;4.856;2022-11-23T22:15:25;6.90;99.90
36548;DHT22;22551;52.206;4.856;2022-11-23T22:20:27;7.00;99.90
36548;DHT22;22551;52.206;4.856;2022-11-23T22:25:32;7.00;99.90
36548;DHT22;22551;52.206;4.856;2022-11-23T22:30:34;7.00;99.90
36548;DHT22;22551;52.206;4.856;2022-11-23T22:35:37;7.10;99.90
36548;DHT22;22551;52.206;4.856;2022-11-23T22:40:45;7.20;99.90
36548;DHT22;22551;52.206;4.856;2022-11-23T22:45:47;7.30;99.90
36548;DHT22;22551;52.206;4.856;2022-11-23T22:50:56;7.20;99.90
36548;DHT22;22551;52.206;4.856;2022-11-23T22:56:03;7.30;99.90
36548;DHT22;22551;52.206;4.856;2022-11-23T23:01:07;7.30;99.90
36548;DHT22;22551;52.206;4.856;2022-11-23T23:06:14;7.40;99.90
36548;DHT22;22551;52.206;4.856;2022-11-23T23:11:18;7.60;99.90
36548;DHT22;22551;52.206;4.856;2022-11-23T23:16:21;7.70;99.90
36548;DHT22;22551;52.206;4.856;2022-11-23T23:21:25;7.80;99.90
36548;DHT22;22551;52.206;4.856;2022-11-23T23:26:30;7.80;99.90
36548;DHT22;22551;52.206;4.856;2022-11-23T23:31:32;7.80;99.90
36548;DHT22;22551;52.206;4.856;2022-11-23T23:36:37;7.90;99.90
36548;DHT22;22551;52.206;4.856;2022-11-23T23:41:41;7.90;99.90
36548;DHT22;22551;52.206;4.856;2022-11-23T23:46:43;8.00;99.90
36548;DHT22;22551;52.206;4.856;2022-11-23T23:51:45;8.00;99.90
36548;DHT22;22551;52.206;4.856;2022-11-23T23:56:49;8.00;99.90
